Time;durP1;ratioP1;P1;durP2;ratioP2;P2;SDS_P1;SDS_P2;PMS_P1;PMS_P2;Temp;Humidity;BMP_temperature;BMP_pressure;BME280_temperature;BME280_humidity;BME280_pressure;Samples;Min_cycle;Max_cycle;Signal;HPM_P1;HPM_P2
2021/05/14 04:39:09;;;;;;;28.65;13.32;;;;;;;13.20;73.95;99303.06;1714764;82;21012;-40
2021/05/14 04:41:37;;;;;;;15.85;7.87;;;;;;;13.38;74.11;99309.63;1717500;81;21653;-36
2021/05/14 04:44:04;;;;;;;21.15;6.00;;;;;;;13.54;74.46;99317.05;1708163;81;21056;-40
2021/05/14 04:46:31;;;;;;;10.80;5.17;;;;;;;13.73;74.74;99308.65;1719176;82;21138;-36
2021/05/14 04:48:58;;;;;;;13.83;5.50;;;;;;;13.94;74.61;99309.36;1718552;82;21019;-35
2021/05/14 04:51:29;;;;;;;7.95;4.37;;;;;;;14.10;74.61;99311.09;1717547;82;21087;-41
2021/05/14 04:53:57;;;;;;;12.10;5.58;;;;;;;14.23;73.19;99305.86;1698663;82;21732;-40
2021/05/14 04:56:23;;;;;;;14.53;4.95;;;;;;;14.34;71.87;99302.91;1716663;81;21150;-40
2021/05/14 04:58:50;;;;;;;9.38;5.50;;;;;;;14.45;71.25;99297.31;1695684;82;21577;-40
2021/05/14 05:01:17;;;;;;;12.10;5.35;;;;;;;14.56;70.64;99291.28;1723676;82;21083;-40
2021/05/14 05:03:54;;;;;;;8.53;4.40;;;;;;;14.68;69.99;99290.89;1722031;81;21046;-40
2021/05/14 05:06:21;;;;;;;14.63;5.30;;;;;;;14.82;69.16;99279.89;1716473;81;21151;-41
2021/05/14 05:08:48;;;;;;;12.25;4.85;;;;;;;15.00;68.38;99275.31;1710855;81;21951;-42
2021/05/14 05:11:17;;;;;;;8.83;4.53;;;;;;;15.20;67.86;99272.02;1715519;82;21134;-41
2021/05/14 05:13:43;;;;;;;12.65;4.87;;;;;;;15.42;67.29;99263.75;1716410;81;21127;-36
2021/05/14 05:16:10;;;;;;;11.03;4.17;;;;;;;15.65;65.82;99264.27;1716842;81;21095;-36
2021/05/14 05:18:37;;;;;;;18.73;5.12;;;;;;;15.81;64.07;99254.45;1721496;82;21058;-36
2021/05/14 05:21:04;;;;;;;9.70;3.70;;;;;;;15.98;63.36;99252.48;1715156;82;21076;-36
2021/05/14 05:23:32;;;;;;;9.65;3.67;;;;;;;16.16;62.42;99255.72;1719650;81;21114;-41
2021/05/14 05:26:02;;;;;;;6.80;3.35;;;;;;;16.35;61.15;99263.34;1717178;82;21135;-40
2021/05/14 05:28:50;;;;;;;13.58;3.98;;;;;;;16.49;61.20;99263.63;1713296;81;21919;-41
2021/05/14 05:31:17;;;;;;;12.68;4.00;;;;;;;16.60;60.64;99261.02;1715122;81;21132;-42
2021/05/14 05:33:44;;;;;;;9.30;3.58;;;;;;;16.70;59.86;99256.66;1716895;82;21067;-37
2021/05/14 05:36:11;;;;;;;12.20;3.80;;;;;;;16.83;59.71;99257.47;1710625;82;21108;-37
2021/05/14 05:38:37;;;;;;;14.58;3.40;;;;;;;16.95;59.83;99258.27;1733423;80;21625;-36
2021/05/14 05:41:05;;;;;;;8.45;3.22;;;;;;;17.05;58.97;99258.71;1749360;80;21080;-35
2021/05/14 05:43:32;;;;;;;8.65;3.33;;;;;;;17.15;58.54;99252.97;1755828;80;21962;-40
2021/05/14 05:45:58;;;;;;;11.38;3.60;;;;;;;17.25;58.21;99254.77;1749323;80;21075;-40
2021/05/14 05:48:25;;;;;;;7.22;3.50;;;;;;;17.34;57.74;99261.45;1753639;80;21133;-41
2021/05/14 05:50:52;;;;;;;10.38;4.03;;;;;;;17.37;57.18;99260.83;1748172;80;21685;-41
2021/05/14 05:53:19;;;;;;;6.22;3.35;;;;;;;17.41;57.67;99266.39;1751640;80;21083;-41
2021/05/14 05:55:46;;;;;;;12.40;4.17;;;;;;;17.49;57.76;99265.57;1753220;80;21112;-41
2021/05/14 05:58:14;;;;;;;8.20;3.80;;;;;;;17.55;58.17;99267.94;1734518;81;21110;-41
2021/05/14 06:00:41;;;;;;;12.23;3.55;;;;;;;17.61;57.34;99275.20;1751627;80;21601;-41
2021/05/14 06:03:10;;;;;;;9.33;3.62;;;;;;;17.63;57.32;99278.20;1752346;80;21374;-41
2021/05/14 06:05:39;;;;;;;12.58;3.98;;;;;;;17.61;57.33;99274.74;1755076;81;21102;-41
2021/05/14 06:08:06;;;;;;;10.63;3.47;;;;;;;17.61;57.10;99266.81;1696720;82;21112;-41
2021/05/14 06:10:33;;;;;;;11.45;3.92;;;;;;;17.67;57.52;99264.35;1751786;80;21031;-41
2021/05/14 06:13:00;;;;;;;10.23;4.05;;;;;;;17.80;57.61;99262.45;1750430;80;21096;-41
2021/05/14 06:15:27;;;;;;;10.35;3.80;;;;;;;17.93;56.61;99256.59;1749014;80;21058;-41
2021/05/14 06:17:55;;;;;;;10.82;3.72;;;;;;;18.01;57.10;99256.61;1748264;80;21096;-37
2021/05/14 06:20:25;;;;;;;11.40;4.65;;;;;;;18.12;56.95;99261.41;1747859;80;21066;-41
2021/05/14 06:22:51;;;;;;;10.25;3.80;;;;;;;18.25;57.40;99257.70;1750481;80;21354;-42
2021/05/14 06:25:23;;;;;;;9.70;3.67;;;;;;;18.34;57.24;99254.64;1745208;80;21126;-38
2021/05/14 06:27:50;;;;;;;10.93;4.20;;;;;;;18.41;57.33;99257.84;1744821;80;21612;-42
2021/05/14 06:30:19;;;;;;;10.08;4.33;;;;;;;18.45;57.33;99260.27;1749213;80;21031;-37
2021/05/14 06:32:46;;;;;;;20.15;4.17;;;;;;;18.48;57.87;99261.43;1749635;80;21111;-36
2021/05/14 06:35:14;;;;;;;11.05;3.87;;;;;;;18.54;57.72;99255.83;1750978;80;21054;-41
2021/05/14 06:37:58;;;;;;;10.43;3.33;;;;;;;18.63;57.21;99247.06;1748411;80;21095;-41
2021/05/14 06:44:59;;;;;;;10.00;3.80;;;;;;;18.73;55.91;99261.58;1754557;80;21143;-36
2021/05/14 06:48:24;;;;;;;15.75;3.75;;;;;;;18.54;56.43;99264.25;1752273;80;21473;-36
2021/05/14 06:52:10;;;;;;;6.47;3.50;;;;;;;18.51;56.69;99271.89;1738926;80;21617;-36
2021/05/14 06:55:13;;;;;;;10.63;4.45;;;;;;;18.52;56.63;99276.25;1751127;80;21115;-36
2021/05/14 06:58:00;;;;;;;12.82;4.33;;;;;;;18.51;57.14;99276.33;1756072;80;21133;-37
2021/05/14 07:00:27;;;;;;;10.78;4.10;;;;;;;18.53;58.49;99267.37;1752930;80;21793;-36
2021/05/14 07:02:54;;;;;;;8.63;3.70;;;;;;;18.61;56.78;99273.16;1753960;80;21589;-37
2021/05/14 07:05:21;;;;;;;8.58;4.58;;;;;;;18.69;57.17;99261.36;1755420;80;21594;-42
2021/05/14 07:07:47;;;;;;;9.73;4.37;;;;;;;18.77;55.88;99270.63;1702893;82;21098;-37
2021/05/14 07:10:15;;;;;;;15.23;4.12;;;;;;;18.83;56.07;99269.00;1701243;82;21839;-37
2021/05/14 07:12:42;;;;;;;10.13;4.72;;;;;;;18.89;54.84;99269.16;1672366;83;21070;-36
2021/05/14 07:15:11;;;;;;;12.00;4.50;;;;;;;18.96;54.82;99269.70;1692861;83;21684;-37
2021/05/14 07:17:46;;;;;;;12.55;4.22;;;;;;;18.98;54.06;99271.36;1746741;80;21471;-35
2021/05/14 07:20:39;;;;;;;8.70;4.28;;;;;;;18.98;53.82;99263.88;1752615;80;21400;-41
2021/05/14 07:23:24;;;;;;;7.53;3.60;;;;;;;18.96;52.93;99267.94;1749113;81;21793;-36
2021/05/14 07:26:11;;;;;;;7.37;3.40;;;;;;;18.95;53.16;99275.47;1739013;80;21500;-41
2021/05/14 07:41:15;;;;;;;11.35;2.98;;;;;;;19.23;51.46;99281.56;1752410;80;21134;-36
2021/05/14 07:44:12;;;;;;;4.73;2.50;;;;;;;19.20;49.96;99280.41;1752441;81;21023;-36
2021/05/14 07:46:39;;;;;;;6.53;2.67;;;;;;;19.07;49.59;99280.16;1744805;81;21091;-36
2021/05/14 07:49:06;;;;;;;4.22;2.30;;;;;;;19.03;48.53;99291.02;1746123;81;21042;-38
2021/05/14 07:51:33;;;;;;;5.58;2.50;;;;;;;19.08;48.08;99287.20;1756001;80;21100;-36
2021/05/14 07:53:59;;;;;;;6.03;2.45;;;;;;;19.17;48.01;99280.55;1753201;80;21010;-41
2021/05/14 07:56:26;;;;;;;10.25;2.75;;;;;;;19.24;48.78;99285.06;1755216;80;21071;-36
2021/05/14 07:58:53;;;;;;;11.43;2.60;;;;;;;19.27;47.32;99281.80;1758156;81;21031;-36
2021/05/14 08:01:20;;;;;;;5.78;2.45;;;;;;;19.30;49.36;99274.14;1757618;80;22078;-41
2021/05/14 08:03:47;;;;;;;8.65;1.90;;;;;;;19.39;47.25;99281.63;1755698;80;21035;-39
2021/05/14 08:06:13;;;;;;;10.25;2.00;;;;;;;19.51;45.49;99280.98;1753482;80;21125;-48
2021/05/14 08:08:42;;;;;;;9.88;1.77;;;;;;;19.63;43.87;99283.02;1753257;80;20995;-37
2021/05/14 08:11:09;;;;;;;6.80;1.90;;;;;;;19.77;41.88;99280.09;1758190;81;21086;-36
2021/05/14 08:13:37;;;;;;;6.90;1.87;;;;;;;19.84;41.29;99280.17;1748736;80;21387;-41
2021/05/14 08:16:19;;;;;;;9.70;2.33;;;;;;;19.91;40.64;99275.77;1749697;78;21082;31
2021/05/14 08:18:46;;;;;;;8.83;2.92;;;;;;;19.99;41.60;99272.69;1656105;84;21003;-40
2021/05/14 08:21:13;;;;;;;10.30;2.42;;;;;;;20.13;43.25;99280.77;1652415;84;21467;-40
2021/05/14 08:23:40;;;;;;;6.35;2.00;;;;;;;20.24;42.92;99278.85;1675511;84;21058;-41
2021/05/14 08:26:09;;;;;;;6.70;2.33;;;;;;;20.31;42.13;99276.23;1677782;83;21664;-36
2021/05/14 08:29:07;;;;;;;12.37;2.40;;;;;;;20.38;39.87;99280.25;1676156;83;21099;-41
2021/05/14 08:32:05;;;;;;;8.73;1.62;;;;;;;20.43;40.56;99274.69;1671477;84;21505;-36
2021/05/14 08:34:52;;;;;;;5.87;2.52;;;;;;;20.50;40.21;99281.39;1669781;83;21572;-36
2021/05/14 08:37:39;;;;;;;3.20;1.90;;;;;;;20.51;40.09;99272.95;1677013;84;21197;-41
2021/05/14 08:41:12;;;;;;;5.30;1.60;;;;;;;20.57;38.92;99268.61;1676846;84;21066;-41
2021/05/14 08:43:49;;;;;;;6.85;2.17;;;;;;;20.66;40.24;99268.95;1679451;83;20995;-36
2021/05/14 08:46:27;;;;;;;4.45;1.80;;;;;;;20.78;38.23;99272.70;1646160;84;21143;-41
2021/05/14 08:48:56;;;;;;;6.22;1.57;;;;;;;20.88;38.49;99275.21;1655868;83;21086;-41
2021/05/14 08:51:29;;;;;;;5.15;1.80;;;;;;;20.99;37.04;99258.64;1677680;84;21568;-37
2021/05/14 08:53:52;;;;;;;7.03;2.08;;;;;;;21.02;37.44;99271.73;1674269;83;21063;-41
2021/05/14 08:56:19;;;;;;;5.90;1.72;;;;;;;21.04;37.52;99265.84;1676136;83;21150;-36
2021/05/14 08:58:47;;;;;;;3.65;2.02;;;;;;;21.05;37.41;99271.56;1647410;85;21670;-41
2021/05/14 09:01:14;;;;;;;3.52;1.72;;;;;;;21.12;37.22;99253.44;1646443;85;21084;-37
2021/05/14 09:04:03;;;;;;;3.92;1.85;;;;;;;21.25;38.32;99266.38;1645661;85;21039;-41
2021/05/14 09:06:36;;;;;;;4.83;2.22;;;;;;;21.31;37.02;99266.04;1680390;83;21086;-36
2021/05/14 09:09:08;;;;;;;6.72;1.82;;;;;;;21.28;37.18;99261.33;1674752;83;21613;-37
2021/05/14 09:11:45;;;;;;;3.27;1.70;;;;;;;21.25;37.44;99253.94;1677150;84;21103;-37
2021/05/14 09:14:42;;;;;;;5.22;2.20;;;;;;;21.32;38.33;99256.25;1673051;84;21068;-35
2021/05/14 09:17:14;;;;;;;3.12;1.65;;;;;;;21.38;37.18;99263.86;1670867;84;21122;-36
2021/05/14 09:19:43;;;;;;;4.37;2.02;;;;;;;21.39;37.15;99254.92;1639160;86;21684;-36
2021/05/14 09:22:29;;;;;;;8.93;1.80;;;;;;;21.49;39.04;99256.08;1635626;85;21178;-42
2021/05/14 09:25:11;;;;;;;7.65;1.92;;;;;;;21.64;39.40;99267.13;1614953;86;21090;-40
2021/05/14 09:27:56;;;;;;;2.60;1.67;;;;;;;21.76;38.33;99253.06;1623068;86;21815;-36
2021/05/14 09:34:15;;;;;;;5.80;1.92;;;;;;;21.80;36.50;99256.36;1644138;85;21093;-36
2021/05/14 09:36:47;;;;;;;2.10;1.40;;;;;;;21.79;35.35;99251.52;1640809;86;21149;-36
2021/05/14 09:39:16;;;;;;;5.28;1.52;;;;;;;21.79;36.90;99254.18;1641147;86;22007;-36
2021/05/14 09:41:56;;;;;;;4.95;1.42;;;;;;;21.88;36.79;99249.25;1616942;86;21676;-37
2021/05/14 09:44:26;;;;;;;;;;;;;;;22.03;36.35;99249.59;1561833;86;21070;-42
2021/05/14 09:46:55;;;;;;;4.17;1.77;;;;;;;22.10;36.80;99254.11;1637048;86;20289;-41
2021/05/14 09:49:23;;;;;;;4.83;1.40;;;;;;;22.10;36.55;99252.30;1636947;86;21642;-42
2021/05/14 09:52:09;;;;;;;4.62;1.45;;;;;;;22.11;36.39;99255.81;1638809;85;21622;-35
2021/05/14 09:54:37;;;;;;;5.00;1.52;;;;;;;22.08;35.66;99251.49;1601757;86;21035;-36
2021/05/14 09:57:40;;;;;;;4.80;1.65;;;;;;;22.02;36.75;99247.89;1616167;87;21143;-36
2021/05/14 10:00:07;;;;;;;4.92;1.82;;;;;;;22.03;36.24;99242.48;1585818;89;21118;-36
2021/05/14 10:02:41;;;;;;;4.97;1.45;;;;;;;22.09;37.67;99247.90;1616176;87;22032;-38
2021/05/14 10:05:11;;;;;;;3.67;1.72;;;;;;;22.13;36.16;99253.42;1617215;86;21084;-41
2021/05/14 10:07:42;;;;;;;2.47;1.65;;;;;;;22.06;35.54;99249.41;1641977;86;21175;-36
2021/05/14 10:10:09;;;;;;;7.25;2.37;;;;;;;21.98;35.98;99247.25;1643002;86;21432;-41
2021/05/14 10:12:36;;;;;;;6.30;1.42;;;;;;;22.01;36.33;99250.17;1640279;86;21126;-41
2021/05/14 10:15:08;;;;;;;4.90;1.70;;;;;;;22.07;36.65;99250.27;1641688;85;21908;-36
2021/05/14 10:17:39;;;;;;;3.10;1.70;;;;;;;22.17;36.86;99259.42;1643624;85;21122;-36
2021/05/14 10:20:14;;;;;;;7.00;1.70;;;;;;;22.23;35.71;99255.03;1674529;84;21083;-38
2021/05/14 10:22:43;;;;;;;7.92;2.45;;;;;;;22.34;35.03;99247.68;1676508;84;21186;-36
2021/05/14 10:25:20;;;;;;;5.37;1.67;;;;;;;22.41;35.56;99257.83;1679679;84;21056;-41
2021/05/14 10:27:44;;;;;;;6.17;1.40;;;;;;;22.50;34.46;99253.25;1674856;84;21158;-38
2021/05/14 10:30:13;;;;;;;6.92;1.85;;;;;;;22.65;34.47;99240.70;1678689;84;21610;-36
2021/05/14 10:32:48;;;;;;;10.85;1.50;;;;;;;22.84;34.82;99249.20;1673252;84;21744;-41
2021/05/14 10:35:26;;;;;;;4.10;1.60;;;;;;;23.13;34.55;99238.38;1672243;84;21075;-41
2021/05/14 10:38:10;;;;;;;5.25;1.57;;;;;;;23.44;33.92;99245.63;1671972;84;21208;-36
2021/05/14 10:40:41;;;;;;;8.75;1.60;;;;;;;23.71;33.36;99244.20;1674101;83;21434;-41
2021/05/14 10:43:11;;;;;;;6.53;1.80;;;;;;;24.01;33.47;99239.84;1677029;84;21182;-41
2021/05/14 10:46:01;;;;;;;3.62;1.35;;;;;;;24.33;32.29;99238.34;1675670;84;21433;-37
2021/05/14 10:48:28;;;;;;;6.15;1.45;;;;;;;24.56;31.47;99232.66;1673436;84;21116;-36
2021/05/14 10:50:59;;;;;;;9.55;1.90;;;;;;;24.80;31.44;99231.80;1675461;83;21048;-43
2021/05/14 10:53:42;;;;;;;7.92;2.33;;;;;;;24.66;31.13;99248.40;1670872;83;21414;-36
2021/05/14 10:56:21;;;;;;;2.67;1.70;;;;;;;24.63;31.64;99231.23;1673402;84;21050;-36
2021/05/14 10:58:55;;;;;;;3.70;1.70;;;;;;;24.61;33.31;99229.17;1677143;84;21110;-35
2021/05/14 11:01:31;;;;;;;4.50;1.30;;;;;;;24.64;30.65;99236.98;1667827;83;21063;-41
2021/05/14 11:03:59;;;;;;;5.47;1.55;;;;;;;24.52;31.67;99237.01;1673997;84;21124;-36
2021/05/14 11:06:27;;;;;;;4.20;1.60;;;;;;;24.52;31.67;99237.01;1673767;84;21054;-36
2021/05/14 11:09:06;;;;;;;1.60;1.50;;;;;;;24.58;31.52;99242.75;1669501;83;21192;-43
2021/05/14 11:11:38;;;;;;;3.80;1.57;;;;;;;24.48;31.51;99236.89;1664543;84;21721;-37
2021/05/14 11:20:51;;;;;;;6.35;1.32;;;;;;;24.23;31.14;99237.30;1654876;85;21664;-38
2021/05/14 11:23:42;;;;;;;7.33;1.57;;;;;;;23.89;32.67;99229.08;1649856;84;21535;-44
2021/05/14 11:26:18;;;;;;;10.48;1.80;;;;;;;23.68;32.43;99228.41;1652860;85;21078;-46
2021/05/14 11:28:47;;;;;;;3.37;1.67;;;;;;;23.57;34.00;99233.13;1649372;85;21074;-37
2021/05/14 11:31:26;;;;;;;5.50;1.87;;;;;;;23.63;32.55;99218.05;1647227;85;21099;-38
2021/05/14 11:33:55;;;;;;;6.08;1.60;;;;;;;23.60;31.77;99227.59;1636484;86;21244;-38
2021/05/14 11:36:22;;;;;;;11.40;1.67;;;;;;;23.52;33.78;99224.59;1651851;85;21156;-37
2021/05/14 11:38:51;;;;;;;4.83;2.30;;;;;;;23.46;33.23;99225.02;1651317;85;21708;-42
2021/05/14 11:41:28;;;;;;;9.70;1.98;;;;;;;23.45;32.55;99223.31;1637878;86;21050;-36
2021/05/14 11:44:03;;;;;;;6.62;1.70;;;;;;;23.43;32.90;99226.58;1633028;85;21103;-43
2021/05/14 11:46:27;;;;;;;14.43;2.20;;;;;;;23.36;32.20;99227.46;1628732;86;21133;-37
2021/05/14 11:48:55;;;;;;;4.67;1.92;;;;;;;23.33;32.83;99233.03;1625140;86;21461;-41
2021/05/14 11:51:21;;;;;;;8.00;2.02;;;;;;;23.30;33.30;99222.07;1659763;84;21042;-37
2021/05/14 11:53:48;;;;;;;3.77;1.50;;;;;;;23.30;33.04;99222.55;1671174;84;21658;-42
2021/05/14 11:56:15;;;;;;;9.68;2.25;;;;;;;23.25;33.29;99236.23;1650824;84;21119;-37
2021/05/14 11:58:43;;;;;;;5.08;1.60;;;;;;;23.13;33.04;99233.05;1645118;85;21154;-43
2021/05/14 12:01:10;;;;;;;13.98;1.90;;;;;;;23.07;34.66;99232.98;1663256;84;21112;-42
2021/05/14 12:03:37;;;;;;;4.08;1.22;;;;;;;23.11;33.15;99232.31;1679981;85;21422;-42
2021/05/14 12:06:10;;;;;;;5.58;1.42;;;;;;;23.08;32.22;99228.05;1677106;85;21168;-42
2021/05/14 12:08:36;;;;;;;5.53;1.50;;;;;;;23.05;32.65;99226.06;1668611;84;21089;-43
2021/05/14 12:11:15;;;;;;;4.65;1.47;;;;;;;23.02;32.58;99228.47;1666998;85;21099;-38
2021/05/14 12:13:43;;;;;;;7.00;1.70;;;;;;;23.01;33.13;99226.73;1675220;85;21929;-38
2021/05/14 12:16:12;;;;;;;3.15;1.30;;;;;;;23.01;33.12;99230.73;1677663;84;21409;-38
2021/05/14 12:19:02;;;;;;;6.67;1.70;;;;;;;22.99;33.93;99227.81;1657221;85;21091;-43
2021/05/14 12:21:32;;;;;;;4.45;1.85;;;;;;;22.95;34.31;99228.97;1685195;84;21044;-38
2021/05/14 12:24:02;;;;;;;5.62;1.55;;;;;;;23.03;34.08;99219.99;1669898;85;21068;-43
2021/05/14 12:26:30;;;;;;;3.83;2.02;;;;;;;23.15;33.88;99222.30;1671460;84;21051;-43
2021/05/14 12:28:57;;;;;;;3.00;1.30;;;;;;;23.19;33.56;99216.63;1664326;85;21102;-37
2021/05/14 12:31:30;;;;;;;3.30;1.30;;;;;;;23.22;34.53;99221.77;1686292;85;21453;-43
2021/05/14 12:33:59;;;;;;;4.12;2.05;;;;;;;23.26;33.92;99232.60;1686231;84;21112;-38
2021/05/14 12:36:35;;;;;;;2.15;1.30;;;;;;;23.16;33.34;99225.33;1678575;84;21062;-38
2021/05/14 12:39:15;;;;;;;3.52;1.50;;;;;;;23.07;33.36;99217.47;1668244;85;21084;-43
2021/05/14 12:41:43;;;;;;;1.85;1.50;;;;;;;23.08;34.13;99220.05;1677213;85;22011;-43
2021/05/14 12:44:22;;;;;;;4.78;1.60;;;;;;;23.06;34.20;99233.95;1677531;85;21100;-44
2021/05/14 12:47:14;;;;;;;5.37;1.40;;;;;;;23.02;34.81;99232.95;1662428;85;21140;-43
2021/05/14 12:50:02;;;;;;;6.85;1.50;;;;;;;23.08;34.94;99226.72;1666294;84;21055;-38
2021/05/14 12:52:35;;;;;;;4.15;1.20;;;;;;;23.22;35.72;99225.77;1653275;85;21614;-37
2021/05/14 12:55:06;;;;;;;3.75;1.30;;;;;;;23.34;35.44;99230.73;1674863;85;21678;-38
2021/05/14 12:57:38;;;;;;;4.40;1.00;;;;;;;23.44;34.08;99222.47;1676972;85;21102;-37
2021/05/14 13:00:16;;;;;;;8.08;1.45;;;;;;;23.43;33.99;99232.77;1679134;85;21076;-37
2021/05/14 13:03:09;;;;;;;5.45;1.20;;;;;;;23.41;33.97;99229.82;1659914;85;21103;-43
2021/05/14 13:05:44;;;;;;;4.70;1.20;;;;;;;23.40;33.37;99228.12;1665598;85;21578;-38
2021/05/14 13:08:13;;;;;;;7.60;1.98;;;;;;;23.35;33.82;99230.61;1665049;84;21110;-38
2021/05/14 13:10:49;;;;;;;5.45;1.32;;;;;;;23.32;33.81;99227.33;1675913;85;21029;-37
2021/05/14 13:13:18;;;;;;;3.05;1.05;;;;;;;23.18;33.26;99226.92;1663532;85;21119;-37
2021/05/14 13:15:44;;;;;;;4.40;1.15;;;;;;;22.99;34.24;99233.15;1675963;85;21036;-43
2021/05/14 13:18:34;;;;;;;2.72;1.42;;;;;;;23.06;34.67;99227.28;1672927;84;21160;-39
2021/05/14 13:21:03;;;;;;;4.22;1.22;;;;;;;23.15;34.52;99226.30;1646144;86;21037;-44
2021/05/14 13:23:30;;;;;;;3.87;1.40;;;;;;;23.32;33.50;99233.52;1656242;85;21215;-44
2021/05/14 13:25:57;;;;;;;5.35;1.20;;;;;;;23.39;33.84;99233.09;1673532;85;21047;-44
2021/05/14 13:28:24;;;;;;;2.02;0.98;;;;;;;23.48;32.93;99231.09;1620506;86;21175;-36
2021/05/14 13:30:51;;;;;;;2.25;1.22;;;;;;;23.56;32.55;99236.28;1654915;85;21060;-37
2021/05/14 13:33:18;;;;;;;5.45;1.35;;;;;;;23.61;31.71;99236.82;1683295;85;21106;-37
2021/05/14 13:35:44;;;;;;;4.20;1.00;;;;;;;23.63;33.16;99232.73;1642797;87;21050;-43
2021/05/14 13:38:11;;;;;;;6.17;1.07;;;;;;;23.58;32.79;99240.17;1641153;87;21131;-37
2021/05/14 13:40:38;;;;;;;6.45;1.20;;;;;;;23.46;31.54;99255.23;1617606;88;21081;-37
2021/05/14 13:43:05;;;;;;;2.77;1.10;;;;;;;23.32;31.68;99244.19;1634378;87;21106;-38
2021/05/14 13:45:34;;;;;;;2.62;1.32;;;;;;;23.26;32.61;99239.76;1629948;88;21127;-43
2021/05/14 13:48:04;;;;;;;4.45;1.20;;;;;;;23.30;32.22;99243.41;1668740;85;21150;-43
2021/05/14 13:50:29;;;;;;;4.33;1.15;;;;;;;23.50;32.00;99243.88;1652634;85;21102;-43
2021/05/14 13:52:56;;;;;;;10.40;1.00;;;;;;;23.78;31.26;99246.83;1609638;87;21126;-38
